Falmouth, Indiana
Current Conditions -  °F | °C
As of 12:53 AM on Wednesday 28 Jan 2015 (Local Time) from KGEZ Reporting Station
Clear Clear  
Wind Chill: 20°   Ceiling: Unl
Heat Index: 20°   Visibility: 8mi
Dew Point: 13°   Wind: 0mph
Humidity: 74%   Direction: NA
Pressure: 30.25"   Gusts: NA
Location:  39.7°N, 85.3°W
Report Text: KGEZ 280553Z AUTO 00000KT 8SM CLR M07/M11 A3025 RMK AO2 SLP255 T10671106 11028 21072 53003
Loading
Personal Weather Stations






























Interactive Weather Map New forecast layout! Learn more

10-Day Weather Forecast

Advertisements
Track Severe Weather on mobile